Alburtis, Pennsylvania
Current Conditions -  °F | °C
As of 1:15 PM on Thursday 23 Oct 2014 (Local Time) from KXLL Reporting Station
Overcast Overcast  
Wind Chill: 11°   Ceiling: 2300
Heat Index: 11°   Visibility: 10mi
Dew Point:   Wind: 12mph
Humidity: 71%   Direction: 340°NNW
Pressure: 29.82"   Gusts: 23mph
Location:  40.51°N, 75.6°W
Report Text: KXLL 231715Z AUTO 34010G20KT 10SM OVC023 11/06 A2982 RMK AO2
Loading
Personal Weather Stations






























Interactive Weather Map New forecast layout! Learn more

10-Day Weather Forecast

Advertisements
Track Severe Weather on mobile